Arlington, Kansas
Current Conditions -  °F | °C
As of 5:52 PM on Saturday 25 Oct 2014 (Local Time) from KHUT Reporting Station
Clear Clear  
Wind Chill: 84°   Ceiling: Unl
Heat Index: 84°   Visibility: 10mi
Dew Point: 58°   Wind: 8mph
Humidity: 41%   Direction: 160°SSE
Pressure: 29.98"   Gusts: NA
Location:  37.9°N, 98.18°W
Report Text: KHUT 252252Z 16007KT 10SM CLR 29/14 A2998 RMK AO2 SLP136 T02890144
Loading
Personal Weather Stations






























Interactive Weather Map
Tropical Storm Tracking
New forecast layout! Learn more

10-Day Weather Forecast

Advertisements
Track Severe Weather on mobile